sensor_id;sensor_type;location;lat;lon;timestamp;P1;durP1;ratioP1;P2;durP2;ratioP2
23573;SDS011;11965;53.640;10.050;2023-07-16T00:01:58;2.39;;;2.39;;
23573;SDS011;11965;53.640;10.050;2023-07-16T00:04:27;2.19;;;2.19;;
23573;SDS011;11965;53.640;10.050;2023-07-16T00:06:54;2.52;;;2.52;;
23573;SDS011;11965;53.640;10.050;2023-07-16T00:09:20;2.06;;;2.06;;
23573;SDS011;11965;53.640;10.050;2023-07-16T00:11:47;2.58;;;2.58;;
23573;SDS011;11965;53.640;10.050;2023-07-16T00:14:14;2.27;;;2.27;;
23573;SDS011;11965;53.640;10.050;2023-07-16T00:16:41;2.21;;;2.21;;
23573;SDS011;11965;53.640;10.050;2023-07-16T00:19:09;2.62;;;2.62;;
23573;SDS011;11965;53.640;10.050;2023-07-16T00:21:38;2.85;;;2.85;;
23573;SDS011;11965;53.640;10.050;2023-07-16T00:24:04;2.47;;;2.47;;
23573;SDS011;11965;53.640;10.050;2023-07-16T00:26:31;2.47;;;2.47;;
23573;SDS011;11965;53.640;10.050;2023-07-16T00:28:58;2.30;;;2.30;;
23573;SDS011;11965;53.640;10.050;2023-07-16T00:31:25;2.35;;;2.35;;
23573;SDS011;11965;53.640;10.050;2023-07-16T00:33:52;2.61;;;2.61;;
23573;SDS011;11965;53.640;10.050;2023-07-16T00:36:19;2.35;;;2.35;;
23573;SDS011;11965;53.640;10.050;2023-07-16T00:38:47;2.52;;;2.52;;
23573;SDS011;11965;53.640;10.050;2023-07-16T00:41:15;2.64;;;2.64;;
23573;SDS011;11965;53.640;10.050;2023-07-16T00:43:42;2.54;;;2.54;;
23573;SDS011;11965;53.640;10.050;2023-07-16T00:46:09;2.66;;;2.66;;
23573;SDS011;11965;53.640;10.050;2023-07-16T00:48:37;2.54;;;2.54;;
23573;SDS011;11965;53.640;10.050;2023-07-16T00:51:04;2.68;;;2.68;;
23573;SDS011;11965;53.640;10.050;2023-07-16T00:53:32;2.54;;;2.54;;
23573;SDS011;11965;53.640;10.050;2023-07-16T00:56:00;2.70;;;2.70;;
23573;SDS011;11965;53.640;10.050;2023-07-16T00:58:27;2.50;;;2.50;;
23573;SDS011;11965;53.640;10.050;2023-07-16T01:00:54;2.52;;;2.52;;
23573;SDS011;11965;53.640;10.050;2023-07-16T01:03:21;2.53;;;2.53;;
23573;SDS011;11965;53.640;10.050;2023-07-16T01:05:49;2.65;;;2.65;;
23573;SDS011;11965;53.640;10.050;2023-07-16T01:08:26;2.42;;;2.42;;
23573;SDS011;11965;53.640;10.050;2023-07-16T01:11:01;2.37;;;2.37;;
23573;SDS011;11965;53.640;10.050;2023-07-16T01:13:28;2.33;;;2.33;;
23573;SDS011;11965;53.640;10.050;2023-07-16T01:15:56;2.39;;;2.39;;
23573;SDS011;11965;53.640;10.050;2023-07-16T01:18:23;2.51;;;2.51;;
23573;SDS011;11965;53.640;10.050;2023-07-16T01:20:49;2.30;;;2.30;;
23573;SDS011;11965;53.640;10.050;2023-07-16T01:23:24;2.14;;;2.14;;
23573;SDS011;11965;53.640;10.050;2023-07-16T01:26:06;2.29;;;2.29;;
23573;SDS011;11965;53.640;10.050;2023-07-16T01:31:47;2.43;;;2.43;;
23573;SDS011;11965;53.640;10.050;2023-07-16T01:34:17;2.36;;;2.36;;
23573;SDS011;11965;53.640;10.050;2023-07-16T01:36:45;2.36;;;2.36;;
23573;SDS011;11965;53.640;10.050;2023-07-16T01:39:13;2.54;;;2.54;;
23573;SDS011;11965;53.640;10.050;2023-07-16T01:41:40;2.52;;;2.52;;
23573;SDS011;11965;53.640;10.050;2023-07-16T01:44:07;2.40;;;2.40;;
23573;SDS011;11965;53.640;10.050;2023-07-16T01:46:34;2.60;;;2.60;;
23573;SDS011;11965;53.640;10.050;2023-07-16T01:49:02;2.67;;;2.67;;
23573;SDS011;11965;53.640;10.050;2023-07-16T01:51:29;2.83;;;2.83;;
23573;SDS011;11965;53.640;10.050;2023-07-16T01:53:56;2.40;;;2.40;;
23573;SDS011;11965;53.640;10.050;2023-07-16T01:56:23;2.48;;;2.48;;
23573;SDS011;11965;53.640;10.050;2023-07-16T01:58:50;2.63;;;2.63;;
23573;SDS011;11965;53.640;10.050;2023-07-16T02:01:17;2.82;;;2.82;;
23573;SDS011;11965;53.640;10.050;2023-07-16T02:03:44;2.77;;;2.77;;
23573;SDS011;11965;53.640;10.050;2023-07-16T02:06:12;3.14;;;3.14;;
23573;SDS011;11965;53.640;10.050;2023-07-16T02:08:40;2.91;;;2.91;;
23573;SDS011;11965;53.640;10.050;2023-07-16T02:11:06;2.60;;;2.60;;
23573;SDS011;11965;53.640;10.050;2023-07-16T02:13:33;2.92;;;2.92;;
23573;SDS011;11965;53.640;10.050;2023-07-16T02:16:00;2.50;;;2.50;;
23573;SDS011;11965;53.640;10.050;2023-07-16T02:18:27;2.65;;;2.65;;
23573;SDS011;11965;53.640;10.050;2023-07-16T02:20:54;2.68;;;2.68;;
23573;SDS011;11965;53.640;10.050;2023-07-16T02:23:22;2.72;;;2.72;;
23573;SDS011;11965;53.640;10.050;2023-07-16T02:25:48;2.61;;;2.61;;
23573;SDS011;11965;53.640;10.050;2023-07-16T02:28:16;2.79;;;2.79;;
23573;SDS011;11965;53.640;10.050;2023-07-16T02:30:42;2.93;;;2.93;;
23573;SDS011;11965;53.640;10.050;2023-07-16T02:33:11;2.80;;;2.80;;
23573;SDS011;11965;53.640;10.050;2023-07-16T02:35:37;2.81;;;2.80;;
23573;SDS011;11965;53.640;10.050;2023-07-16T02:38:04;2.89;;;2.89;;
23573;SDS011;11965;53.640;10.050;2023-07-16T02:40:32;2.83;;;2.83;;
23573;SDS011;11965;53.640;10.050;2023-07-16T02:42:59;2.89;;;2.89;;
23573;SDS011;11965;53.640;10.050;2023-07-16T02:45:26;2.94;;;2.94;;
23573;SDS011;11965;53.640;10.050;2023-07-16T02:47:53;3.06;;;3.06;;
23573;SDS011;11965;53.640;10.050;2023-07-16T02:50:19;3.03;;;3.03;;
23573;SDS011;11965;53.640;10.050;2023-07-16T02:52:46;2.88;;;2.88;;
23573;SDS011;11965;53.640;10.050;2023-07-16T02:55:13;3.00;;;3.00;;
23573;SDS011;11965;53.640;10.050;2023-07-16T02:57:41;2.94;;;2.94;;
23573;SDS011;11965;53.640;10.050;2023-07-16T03:00:08;2.79;;;2.78;;
23573;SDS011;11965;53.640;10.050;2023-07-16T03:02:36;3.03;;;3.03;;
23573;SDS011;11965;53.640;10.050;2023-07-16T03:05:04;2.70;;;2.70;;
23573;SDS011;11965;53.640;10.050;2023-07-16T03:07:33;2.87;;;2.87;;
23573;SDS011;11965;53.640;10.050;2023-07-16T03:10:00;3.14;;;3.14;;
23573;SDS011;11965;53.640;10.050;2023-07-16T03:12:27;2.94;;;2.94;;
23573;SDS011;11965;53.640;10.050;2023-07-16T03:14:55;2.84;;;2.84;;
23573;SDS011;11965;53.640;10.050;2023-07-16T03:17:22;2.86;;;2.85;;
23573;SDS011;11965;53.640;10.050;2023-07-16T03:19:49;2.82;;;2.81;;
23573;SDS011;11965;53.640;10.050;2023-07-16T03:22:16;2.69;;;2.69;;
23573;SDS011;11965;53.640;10.050;2023-07-16T03:24:42;2.69;;;2.69;;
23573;SDS011;11965;53.640;10.050;2023-07-16T03:27:09;2.55;;;2.55;;
23573;SDS011;11965;53.640;10.050;2023-07-16T03:29:36;2.73;;;2.73;;
23573;SDS011;11965;53.640;10.050;2023-07-16T03:32:06;2.67;;;2.67;;
23573;SDS011;11965;53.640;10.050;2023-07-16T03:34:33;2.92;;;2.92;;
23573;SDS011;11965;53.640;10.050;2023-07-16T03:37:00;2.92;;;2.92;;
23573;SDS011;11965;53.640;10.050;2023-07-16T03:39:32;2.86;;;2.86;;
23573;SDS011;11965;53.640;10.050;2023-07-16T03:41:58;2.93;;;2.93;;
23573;SDS011;11965;53.640;10.050;2023-07-16T03:44:26;2.93;;;2.93;;
23573;SDS011;11965;53.640;10.050;2023-07-16T03:46:53;2.91;;;2.91;;
23573;SDS011;11965;53.640;10.050;2023-07-16T03:49:21;2.94;;;2.94;;
23573;SDS011;11965;53.640;10.050;2023-07-16T03:51:48;2.83;;;2.83;;
23573;SDS011;11965;53.640;10.050;2023-07-16T03:54:15;2.97;;;2.97;;
23573;SDS011;11965;53.640;10.050;2023-07-16T03:56:42;3.00;;;3.00;;
23573;SDS011;11965;53.640;10.050;2023-07-16T03:59:09;2.63;;;2.63;;
23573;SDS011;11965;53.640;10.050;2023-07-16T04:01:36;2.61;;;2.61;;
23573;SDS011;11965;53.640;10.050;2023-07-16T04:04:03;2.70;;;2.70;;
23573;SDS011;11965;53.640;10.050;2023-07-16T04:06:31;2.91;;;2.91;;
23573;SDS011;11965;53.640;10.050;2023-07-16T04:08:58;2.77;;;2.77;;
23573;SDS011;11965;53.640;10.050;2023-07-16T04:11:25;2.71;;;2.71;;
23573;SDS011;11965;53.640;10.050;2023-07-16T04:13:51;2.71;;;2.71;;
23573;SDS011;11965;53.640;10.050;2023-07-16T04:16:18;2.88;;;2.88;;
23573;SDS011;11965;53.640;10.050;2023-07-16T04:18:45;2.73;;;2.73;;
23573;SDS011;11965;53.640;10.050;2023-07-16T04:21:12;2.90;;;2.90;;
23573;SDS011;11965;53.640;10.050;2023-07-16T04:23:40;3.01;;;3.01;;
23573;SDS011;11965;53.640;10.050;2023-07-16T04:26:07;3.10;;;3.10;;
23573;SDS011;11965;53.640;10.050;2023-07-16T04:28:33;2.87;;;2.87;;
23573;SDS011;11965;53.640;10.050;2023-07-16T04:31:00;3.01;;;3.01;;
23573;SDS011;11965;53.640;10.050;2023-07-16T04:33:27;3.06;;;3.05;;
23573;SDS011;11965;53.640;10.050;2023-07-16T04:35:54;3.06;;;3.06;;
23573;SDS011;11965;53.640;10.050;2023-07-16T04:38:21;3.01;;;3.01;;
23573;SDS011;11965;53.640;10.050;2023-07-16T04:40:49;3.00;;;3.00;;
23573;SDS011;11965;53.640;10.050;2023-07-16T04:43:15;2.87;;;2.86;;
23573;SDS011;11965;53.640;10.050;2023-07-16T04:45:43;3.13;;;3.12;;
23573;SDS011;11965;53.640;10.050;2023-07-16T04:48:12;3.01;;;3.01;;
23573;SDS011;11965;53.640;10.050;2023-07-16T04:50:38;2.79;;;2.79;;
23573;SDS011;11965;53.640;10.050;2023-07-16T04:53:05;2.77;;;2.77;;
23573;SDS011;11965;53.640;10.050;2023-07-16T04:55:34;2.74;;;2.74;;
23573;SDS011;11965;53.640;10.050;2023-07-16T04:58:03;2.80;;;2.80;;
23573;SDS011;11965;53.640;10.050;2023-07-16T05:00:31;2.79;;;2.79;;
23573;SDS011;11965;53.640;10.050;2023-07-16T05:02:58;2.88;;;2.88;;
23573;SDS011;11965;53.640;10.050;2023-07-16T05:05:39;2.45;;;2.45;;
23573;SDS011;11965;53.640;10.050;2023-07-16T05:08:06;2.77;;;2.77;;
23573;SDS011;11965;53.640;10.050;2023-07-16T05:10:33;2.69;;;2.69;;
23573;SDS011;11965;53.640;10.050;2023-07-16T05:13:00;2.61;;;2.61;;
23573;SDS011;11965;53.640;10.050;2023-07-16T05:15:31;2.55;;;2.55;;
23573;SDS011;11965;53.640;10.050;2023-07-16T05:17:58;2.36;;;2.36;;
23573;SDS011;11965;53.640;10.050;2023-07-16T05:20:25;2.46;;;2.46;;
23573;SDS011;11965;53.640;10.050;2023-07-16T05:22:52;2.62;;;2.62;;
23573;SDS011;11965;53.640;10.050;2023-07-16T05:25:18;2.63;;;2.63;;
23573;SDS011;11965;53.640;10.050;2023-07-16T05:27:45;2.69;;;2.69;;
23573;SDS011;11965;53.640;10.050;2023-07-16T05:30:12;2.69;;;2.68;;
23573;SDS011;11965;53.640;10.050;2023-07-16T05:32:40;2.80;;;2.78;;
23573;SDS011;11965;53.640;10.050;2023-07-16T05:35:07;2.70;;;2.65;;
23573;SDS011;11965;53.640;10.050;2023-07-16T05:37:34;2.73;;;2.68;;
23573;SDS011;11965;53.640;10.050;2023-07-16T05:40:02;2.73;;;2.68;;
23573;SDS011;11965;53.640;10.050;2023-07-16T05:42:29;2.52;;;2.49;;
23573;SDS011;11965;53.640;10.050;2023-07-16T05:44:56;2.64;;;2.60;;
23573;SDS011;11965;53.640;10.050;2023-07-16T05:47:22;2.82;;;2.80;;
23573;SDS011;11965;53.640;10.050;2023-07-16T05:49:51;2.88;;;2.88;;
23573;SDS011;11965;53.640;10.050;2023-07-16T05:52:17;2.62;;;2.59;;
23573;SDS011;11965;53.640;10.050;2023-07-16T05:54:44;2.91;;;2.90;;
23573;SDS011;11965;53.640;10.050;2023-07-16T05:57:11;3.07;;;3.04;;
23573;SDS011;11965;53.640;10.050;2023-07-16T05:59:38;2.82;;;2.82;;
23573;SDS011;11965;53.640;10.050;2023-07-16T06:02:05;2.86;;;2.80;;
23573;SDS011;11965;53.640;10.050;2023-07-16T06:04:32;2.65;;;2.61;;
23573;SDS011;11965;53.640;10.050;2023-07-16T06:07:02;2.41;;;2.41;;
23573;SDS011;11965;53.640;10.050;2023-07-16T06:09:29;2.49;;;2.49;;
23573;SDS011;11965;53.640;10.050;2023-07-16T06:11:56;2.53;;;2.53;;
23573;SDS011;11965;53.640;10.050;2023-07-16T06:14:23;2.92;;;2.91;;
23573;SDS011;11965;53.640;10.050;2023-07-16T06:16:50;2.91;;;2.90;;
23573;SDS011;11965;53.640;10.050;2023-07-16T06:19:17;2.97;;;2.95;;
23573;SDS011;11965;53.640;10.050;2023-07-16T06:21:44;2.80;;;2.75;;
23573;SDS011;11965;53.640;10.050;2023-07-16T06:24:12;2.99;;;2.94;;
23573;SDS011;11965;53.640;10.050;2023-07-16T06:26:39;3.27;;;3.21;;
23573;SDS011;11965;53.640;10.050;2023-07-16T06:29:06;3.14;;;3.09;;
23573;SDS011;11965;53.640;10.050;2023-07-16T06:31:33;2.55;;;2.53;;
23573;SDS011;11965;53.640;10.050;2023-07-16T06:34:00;2.59;;;2.56;;
23573;SDS011;11965;53.640;10.050;2023-07-16T06:36:27;2.61;;;2.58;;
23573;SDS011;11965;53.640;10.050;2023-07-16T06:38:54;2.78;;;2.73;;
23573;SDS011;11965;53.640;10.050;2023-07-16T06:41:22;3.05;;;2.99;;
23573;SDS011;11965;53.640;10.050;2023-07-16T06:43:49;2.91;;;2.82;;
23573;SDS011;11965;53.640;10.050;2023-07-16T06:46:16;3.06;;;3.03;;
23573;SDS011;11965;53.640;10.050;2023-07-16T06:48:43;3.11;;;3.11;;
23573;SDS011;11965;53.640;10.050;2023-07-16T06:51:09;3.14;;;3.14;;
23573;SDS011;11965;53.640;10.050;2023-07-16T06:53:36;3.62;;;3.59;;
23573;SDS011;11965;53.640;10.050;2023-07-16T06:56:03;3.28;;;3.25;;
23573;SDS011;11965;53.640;10.050;2023-07-16T06:58:32;3.46;;;3.44;;
23573;SDS011;11965;53.640;10.050;2023-07-16T07:01:01;3.55;;;3.52;;
23573;SDS011;11965;53.640;10.050;2023-07-16T07:03:28;3.54;;;3.50;;
23573;SDS011;11965;53.640;10.050;2023-07-16T07:05:55;3.53;;;3.53;;
23573;SDS011;11965;53.640;10.050;2023-07-16T07:08:22;3.83;;;3.83;;
23573;SDS011;11965;53.640;10.050;2023-07-16T07:10:49;3.45;;;3.45;;
23573;SDS011;11965;53.640;10.050;2023-07-16T07:13:16;3.46;;;3.42;;
23573;SDS011;11965;53.640;10.050;2023-07-16T07:15:44;3.56;;;3.55;;
23573;SDS011;11965;53.640;10.050;2023-07-16T07:18:11;3.68;;;3.68;;
23573;SDS011;11965;53.640;10.050;2023-07-16T07:20:39;3.46;;;3.46;;
23573;SDS011;11965;53.640;10.050;2023-07-16T07:23:06;3.89;;;3.89;;
23573;SDS011;11965;53.640;10.050;2023-07-16T07:25:33;3.60;;;3.59;;
23573;SDS011;11965;53.640;10.050;2023-07-16T07:28:00;3.84;;;3.84;;
23573;SDS011;11965;53.640;10.050;2023-07-16T07:30:27;3.36;;;3.36;;
23573;SDS011;11965;53.640;10.050;2023-07-16T07:32:55;3.65;;;3.64;;
23573;SDS011;11965;53.640;10.050;2023-07-16T07:35:22;3.85;;;3.82;;
23573;SDS011;11965;53.640;10.050;2023-07-16T07:37:49;3.91;;;3.87;;
23573;SDS011;11965;53.640;10.050;2023-07-16T07:40:16;3.97;;;3.96;;
23573;SDS011;11965;53.640;10.050;2023-07-16T07:42:42;3.77;;;3.76;;
23573;SDS011;11965;53.640;10.050;2023-07-16T07:45:09;3.61;;;3.60;;
23573;SDS011;11965;53.640;10.050;2023-07-16T07:47:36;3.94;;;3.94;;
23573;SDS011;11965;53.640;10.050;2023-07-16T07:50:05;3.74;;;3.74;;
23573;SDS011;11965;53.640;10.050;2023-07-16T07:52:33;3.73;;;3.73;;
23573;SDS011;11965;53.640;10.050;2023-07-16T07:55:00;3.45;;;3.44;;
23573;SDS011;11965;53.640;10.050;2023-07-16T07:57:26;3.43;;;3.40;;
23573;SDS011;11965;53.640;10.050;2023-07-16T07:59:53;3.39;;;3.32;;
23573;SDS011;11965;53.640;10.050;2023-07-16T08:02:22;3.34;;;3.27;;
23573;SDS011;11965;53.640;10.050;2023-07-16T08:04:50;3.44;;;3.39;;
23573;SDS011;11965;53.640;10.050;2023-07-16T08:07:19;3.42;;;3.35;;
23573;SDS011;11965;53.640;10.050;2023-07-16T08:09:46;3.16;;;3.10;;
23573;SDS011;11965;53.640;10.050;2023-07-16T08:12:13;3.28;;;3.26;;
23573;SDS011;11965;53.640;10.050;2023-07-16T08:14:41;3.31;;;3.31;;
23573;SDS011;11965;53.640;10.050;2023-07-16T08:17:08;3.11;;;3.10;;
23573;SDS011;11965;53.640;10.050;2023-07-16T08:19:34;3.41;;;3.40;;
23573;SDS011;11965;53.640;10.050;2023-07-16T08:22:01;3.50;;;3.48;;
23573;SDS011;11965;53.640;10.050;2023-07-16T08:24:29;3.67;;;3.67;;
23573;SDS011;11965;53.640;10.050;2023-07-16T08:26:56;3.40;;;3.40;;
23573;SDS011;11965;53.640;10.050;2023-07-16T08:29:24;3.16;;;3.16;;
23573;SDS011;11965;53.640;10.050;2023-07-16T08:31:51;3.24;;;3.24;;
23573;SDS011;11965;53.640;10.050;2023-07-16T08:34:18;3.11;;;3.11;;
23573;SDS011;11965;53.640;10.050;2023-07-16T08:36:44;3.44;;;3.40;;
23573;SDS011;11965;53.640;10.050;2023-07-16T08:39:11;3.30;;;3.25;;
23573;SDS011;11965;53.640;10.050;2023-07-16T08:41:40;3.31;;;3.28;;
23573;SDS011;11965;53.640;10.050;2023-07-16T08:44:07;3.36;;;3.33;;
23573;SDS011;11965;53.640;10.050;2023-07-16T08:46:34;3.06;;;3.03;;
23573;SDS011;11965;53.640;10.050;2023-07-16T08:49:01;3.31;;;3.30;;
23573;SDS011;11965;53.640;10.050;2023-07-16T08:51:31;3.02;;;3.02;;
23573;SDS011;11965;53.640;10.050;2023-07-16T08:53:59;3.08;;;3.08;;
23573;SDS011;11965;53.640;10.050;2023-07-16T08:56:26;3.42;;;3.42;;
23573;SDS011;11965;53.640;10.050;2023-07-16T08:58:55;3.48;;;3.48;;
23573;SDS011;11965;53.640;10.050;2023-07-16T09:01:24;3.66;;;3.66;;
23573;SDS011;11965;53.640;10.050;2023-07-16T09:03:52;4.13;;;4.13;;
23573;SDS011;11965;53.640;10.050;2023-07-16T09:06:20;4.28;;;4.28;;
23573;SDS011;11965;53.640;10.050;2023-07-16T09:08:47;4.47;;;4.47;;
23573;SDS011;11965;53.640;10.050;2023-07-16T09:11:13;4.39;;;4.39;;
23573;SDS011;11965;53.640;10.050;2023-07-16T09:13:43;4.42;;;4.42;;
23573;SDS011;11965;53.640;10.050;2023-07-16T09:16:12;4.97;;;4.97;;
23573;SDS011;11965;53.640;10.050;2023-07-16T09:18:41;5.86;;;5.86;;
23573;SDS011;11965;53.640;10.050;2023-07-16T09:21:08;5.69;;;5.69;;
23573;SDS011;11965;53.640;10.050;2023-07-16T09:23:35;5.21;;;5.21;;
23573;SDS011;11965;53.640;10.050;2023-07-16T09:26:03;6.84;;;6.84;;
23573;SDS011;11965;53.640;10.050;2023-07-16T09:28:30;7.36;;;7.36;;
23573;SDS011;11965;53.640;10.050;2023-07-16T09:31:02;5.40;;;5.40;;
23573;SDS011;11965;53.640;10.050;2023-07-16T09:33:31;5.06;;;5.06;;
23573;SDS011;11965;53.640;10.050;2023-07-16T09:35:58;5.16;;;5.16;;
23573;SDS011;11965;53.640;10.050;2023-07-16T09:38:28;4.99;;;4.99;;
23573;SDS011;11965;53.640;10.050;2023-07-16T09:40:56;5.01;;;5.01;;
23573;SDS011;11965;53.640;10.050;2023-07-16T09:43:23;4.86;;;4.86;;
23573;SDS011;11965;53.640;10.050;2023-07-16T09:45:50;4.97;;;4.97;;
23573;SDS011;11965;53.640;10.050;2023-07-16T09:48:17;4.82;;;4.82;;
23573;SDS011;11965;53.640;10.050;2023-07-16T09:50:48;4.82;;;4.82;;
23573;SDS011;11965;53.640;10.050;2023-07-16T09:53:18;4.96;;;4.96;;
23573;SDS011;11965;53.640;10.050;2023-07-16T09:55:46;4.94;;;4.94;;
23573;SDS011;11965;53.640;10.050;2023-07-16T09:58:16;4.71;;;4.71;;
23573;SDS011;11965;53.640;10.050;2023-07-16T10:00:45;4.17;;;4.17;;
23573;SDS011;11965;53.640;10.050;2023-07-16T10:03:14;4.37;;;4.37;;
23573;SDS011;11965;53.640;10.050;2023-07-16T10:05:42;4.67;;;4.67;;
23573;SDS011;11965;53.640;10.050;2023-07-16T10:08:16;4.99;;;4.99;;
23573;SDS011;11965;53.640;10.050;2023-07-16T10:10:45;5.01;;;5.01;;
23573;SDS011;11965;53.640;10.050;2023-07-16T10:13:15;4.96;;;4.96;;
23573;SDS011;11965;53.640;10.050;2023-07-16T10:15:52;4.86;;;4.86;;
23573;SDS011;11965;53.640;10.050;2023-07-16T10:18:24;5.06;;;5.06;;
23573;SDS011;11965;53.640;10.050;2023-07-16T10:20:59;4.44;;;4.44;;
23573;SDS011;11965;53.640;10.050;2023-07-16T10:23:38;4.79;;;4.79;;
23573;SDS011;11965;53.640;10.050;2023-07-16T10:26:06;4.75;;;4.75;;
23573;SDS011;11965;53.640;10.050;2023-07-16T10:28:41;4.37;;;4.37;;
23573;SDS011;11965;53.640;10.050;2023-07-16T10:31:16;4.58;;;4.58;;
23573;SDS011;11965;53.640;10.050;2023-07-16T10:33:44;4.54;;;4.54;;
23573;SDS011;11965;53.640;10.050;2023-07-16T10:36:17;4.33;;;4.33;;
23573;SDS011;11965;53.640;10.050;2023-07-16T10:38:46;4.63;;;4.63;;
23573;SDS011;11965;53.640;10.050;2023-07-16T10:41:13;4.23;;;4.23;;
23573;SDS011;11965;53.640;10.050;2023-07-16T10:43:41;4.13;;;4.13;;
23573;SDS011;11965;53.640;10.050;2023-07-16T10:46:09;4.05;;;4.05;;
23573;SDS011;11965;53.640;10.050;2023-07-16T10:48:36;4.12;;;4.12;;
23573;SDS011;11965;53.640;10.050;2023-07-16T10:51:02;4.13;;;4.13;;
23573;SDS011;11965;53.640;10.050;2023-07-16T10:53:29;4.08;;;4.08;;
23573;SDS011;11965;53.640;10.050;2023-07-16T10:55:58;4.04;;;4.04;;
23573;SDS011;11965;53.640;10.050;2023-07-16T10:58:26;4.20;;;4.20;;
23573;SDS011;11965;53.640;10.050;2023-07-16T11:00:53;4.85;;;4.85;;
23573;SDS011;11965;53.640;10.050;2023-07-16T11:03:20;4.03;;;4.03;;
23573;SDS011;11965;53.640;10.050;2023-07-16T11:05:47;4.48;;;4.48;;
23573;SDS011;11965;53.640;10.050;2023-07-16T11:08:21;4.34;;;4.34;;
23573;SDS011;11965;53.640;10.050;2023-07-16T11:10:52;4.34;;;4.34;;
23573;SDS011;11965;53.640;10.050;2023-07-16T11:13:24;4.39;;;4.38;;
23573;SDS011;11965;53.640;10.050;2023-07-16T11:15:52;4.25;;;4.24;;
23573;SDS011;11965;53.640;10.050;2023-07-16T11:18:21;4.98;;;4.98;;
23573;SDS011;11965;53.640;10.050;2023-07-16T11:20:49;4.25;;;4.25;;
23573;SDS011;11965;53.640;10.050;2023-07-16T11:23:18;4.93;;;4.93;;
23573;SDS011;11965;53.640;10.050;2023-07-16T11:25:45;4.76;;;4.76;;
23573;SDS011;11965;53.640;10.050;2023-07-16T11:28:13;4.50;;;4.50;;
23573;SDS011;11965;53.640;10.050;2023-07-16T11:30:41;4.36;;;4.36;;
23573;SDS011;11965;53.640;10.050;2023-07-16T11:33:09;4.22;;;4.22;;
23573;SDS011;11965;53.640;10.050;2023-07-16T11:35:37;4.66;;;4.66;;
23573;SDS011;11965;53.640;10.050;2023-07-16T11:38:05;4.78;;;4.78;;
23573;SDS011;11965;53.640;10.050;2023-07-16T11:40:33;5.63;;;5.63;;
23573;SDS011;11965;53.640;10.050;2023-07-16T11:43:07;4.68;;;4.68;;
23573;SDS011;11965;53.640;10.050;2023-07-16T11:45:35;4.23;;;4.23;;
23573;SDS011;11965;53.640;10.050;2023-07-16T11:48:04;4.23;;;4.23;;
23573;SDS011;11965;53.640;10.050;2023-07-16T11:50:31;4.30;;;4.30;;
23573;SDS011;11965;53.640;10.050;2023-07-16T11:52:59;4.19;;;4.19;;
23573;SDS011;11965;53.640;10.050;2023-07-16T11:55:27;3.87;;;3.87;;
23573;SDS011;11965;53.640;10.050;2023-07-16T11:57:54;3.81;;;3.81;;
23573;SDS011;11965;53.640;10.050;2023-07-16T12:00:22;3.81;;;3.81;;
23573;SDS011;11965;53.640;10.050;2023-07-16T12:02:49;3.85;;;3.85;;
23573;SDS011;11965;53.640;10.050;2023-07-16T12:05:18;3.86;;;3.86;;
23573;SDS011;11965;53.640;10.050;2023-07-16T12:07:46;4.00;;;4.00;;
23573;SDS011;11965;53.640;10.050;2023-07-16T12:10:13;3.61;;;3.61;;
23573;SDS011;11965;53.640;10.050;2023-07-16T12:12:40;3.62;;;3.62;;
23573;SDS011;11965;53.640;10.050;2023-07-16T12:15:07;3.95;;;3.95;;
23573;SDS011;11965;53.640;10.050;2023-07-16T12:17:35;4.28;;;4.28;;
23573;SDS011;11965;53.640;10.050;2023-07-16T12:20:02;4.59;;;4.59;;
23573;SDS011;11965;53.640;10.050;2023-07-16T12:22:31;4.05;;;4.05;;
23573;SDS011;11965;53.640;10.050;2023-07-16T12:24:59;3.94;;;3.94;;
23573;SDS011;11965;53.640;10.050;2023-07-16T12:27:26;3.91;;;3.91;;
23573;SDS011;11965;53.640;10.050;2023-07-16T12:29:53;4.18;;;4.18;;
23573;SDS011;11965;53.640;10.050;2023-07-16T12:32:20;4.15;;;4.15;;
23573;SDS011;11965;53.640;10.050;2023-07-16T12:34:47;4.07;;;4.07;;
23573;SDS011;11965;53.640;10.050;2023-07-16T12:37:13;3.98;;;3.98;;
23573;SDS011;11965;53.640;10.050;2023-07-16T12:39:43;3.78;;;3.78;;
23573;SDS011;11965;53.640;10.050;2023-07-16T12:42:10;3.95;;;3.95;;
23573;SDS011;11965;53.640;10.050;2023-07-16T12:44:37;3.74;;;3.74;;
23573;SDS011;11965;53.640;10.050;2023-07-16T12:47:04;3.85;;;3.85;;
23573;SDS011;11965;53.640;10.050;2023-07-16T12:49:33;3.70;;;3.70;;
23573;SDS011;11965;53.640;10.050;2023-07-16T12:52:00;3.46;;;3.46;;
23573;SDS011;11965;53.640;10.050;2023-07-16T12:54:27;3.77;;;3.77;;
23573;SDS011;11965;53.640;10.050;2023-07-16T12:56:55;3.56;;;3.56;;
23573;SDS011;11965;53.640;10.050;2023-07-16T12:59:22;3.61;;;3.61;;
23573;SDS011;11965;53.640;10.050;2023-07-16T13:01:50;3.46;;;3.46;;
23573;SDS011;11965;53.640;10.050;2023-07-16T13:04:17;3.38;;;3.38;;
23573;SDS011;11965;53.640;10.050;2023-07-16T13:06:43;3.35;;;3.35;;
23573;SDS011;11965;53.640;10.050;2023-07-16T13:09:12;3.32;;;3.32;;
23573;SDS011;11965;53.640;10.050;2023-07-16T13:11:40;3.43;;;3.43;;
23573;SDS011;11965;53.640;10.050;2023-07-16T13:14:09;3.46;;;3.46;;
23573;SDS011;11965;53.640;10.050;2023-07-16T13:16:36;3.27;;;3.27;;
23573;SDS011;11965;53.640;10.050;2023-07-16T13:19:02;3.29;;;3.29;;
23573;SDS011;11965;53.640;10.050;2023-07-16T13:21:29;3.50;;;3.50;;
23573;SDS011;11965;53.640;10.050;2023-07-16T13:23:56;3.71;;;3.71;;
23573;SDS011;11965;53.640;10.050;2023-07-16T13:26:23;3.32;;;3.32;;
23573;SDS011;11965;53.640;10.050;2023-07-16T13:28:50;3.35;;;3.35;;
23573;SDS011;11965;53.640;10.050;2023-07-16T13:31:19;3.27;;;3.27;;
23573;SDS011;11965;53.640;10.050;2023-07-16T13:33:46;2.98;;;2.98;;
23573;SDS011;11965;53.640;10.050;2023-07-16T13:36:13;3.18;;;3.18;;
23573;SDS011;11965;53.640;10.050;2023-07-16T13:38:40;3.28;;;3.28;;
23573;SDS011;11965;53.640;10.050;2023-07-16T13:41:07;3.29;;;3.29;;
23573;SDS011;11965;53.640;10.050;2023-07-16T13:43:35;3.56;;;3.56;;
23573;SDS011;11965;53.640;10.050;2023-07-16T13:46:02;3.05;;;3.05;;
23573;SDS011;11965;53.640;10.050;2023-07-16T13:48:30;3.27;;;3.26;;
23573;SDS011;11965;53.640;10.050;2023-07-16T13:50:56;3.14;;;3.14;;
23573;SDS011;11965;53.640;10.050;2023-07-16T13:53:23;3.25;;;3.25;;
23573;SDS011;11965;53.640;10.050;2023-07-16T13:55:50;3.31;;;3.31;;
23573;SDS011;11965;53.640;10.050;2023-07-16T13:58:18;3.41;;;3.41;;
23573;SDS011;11965;53.640;10.050;2023-07-16T14:00:45;3.26;;;3.26;;
23573;SDS011;11965;53.640;10.050;2023-07-16T14:03:12;3.28;;;3.28;;
23573;SDS011;11965;53.640;10.050;2023-07-16T14:05:40;3.61;;;3.61;;
23573;SDS011;11965;53.640;10.050;2023-07-16T14:08:07;3.42;;;3.42;;
23573;SDS011;11965;53.640;10.050;2023-07-16T14:10:34;3.33;;;3.33;;
23573;SDS011;11965;53.640;10.050;2023-07-16T14:13:01;3.36;;;3.36;;
23573;SDS011;11965;53.640;10.050;2023-07-16T14:15:27;3.43;;;3.43;;
23573;SDS011;11965;53.640;10.050;2023-07-16T14:17:54;3.18;;;3.18;;
23573;SDS011;11965;53.640;10.050;2023-07-16T14:20:21;3.40;;;3.40;;
23573;SDS011;11965;53.640;10.050;2023-07-16T14:22:49;3.40;;;3.40;;
23573;SDS011;11965;53.640;10.050;2023-07-16T14:25:16;3.42;;;3.42;;
23573;SDS011;11965;53.640;10.050;2023-07-16T14:27:43;3.29;;;3.29;;
23573;SDS011;11965;53.640;10.050;2023-07-16T14:30:10;3.36;;;3.36;;
23573;SDS011;11965;53.640;10.050;2023-07-16T14:32:37;3.16;;;3.16;;
23573;SDS011;11965;53.640;10.050;2023-07-16T14:35:04;3.36;;;3.36;;
23573;SDS011;11965;53.640;10.050;2023-07-16T14:37:31;3.51;;;3.50;;
23573;SDS011;11965;53.640;10.050;2023-07-16T14:39:59;3.65;;;3.65;;